sensor_id;sensor_type;location;lat;lon;timestamp;temperature;humidity
11320;DHT22;5715;48.234;14.320;2023-06-14T00:01:14;13.70;99.90
11320;DHT22;5715;48.234;14.320;2023-06-14T00:04:02;13.20;99.90
11320;DHT22;5715;48.234;14.320;2023-06-14T00:06:50;12.90;99.90
11320;DHT22;5715;48.234;14.320;2023-06-14T00:09:37;12.50;99.90
11320;DHT22;5715;48.234;14.320;2023-06-14T00:12:25;12.30;99.90
11320;DHT22;5715;48.234;14.320;2023-06-14T00:15:13;12.10;99.90
11320;DHT22;5715;48.234;14.320;2023-06-14T00:18:01;11.90;99.90
11320;DHT22;5715;48.234;14.320;2023-06-14T00:20:50;11.80;99.90
11320;DHT22;5715;48.234;14.320;2023-06-14T00:23:39;11.70;99.90
11320;DHT22;5715;48.234;14.320;2023-06-14T00:26:26;11.60;99.90
11320;DHT22;5715;48.234;14.320;2023-06-14T00:29:14;11.50;99.90
11320;DHT22;5715;48.234;14.320;2023-06-14T00:32:01;11.40;99.90
11320;DHT22;5715;48.234;14.320;2023-06-14T00:34:49;11.30;99.90
11320;DHT22;5715;48.234;14.320;2023-06-14T00:37:37;11.20;99.90
11320;DHT22;5715;48.234;14.320;2023-06-14T00:40:25;11.10;99.90
11320;DHT22;5715;48.234;14.320;2023-06-14T00:43:12;11.10;99.90
11320;DHT22;5715;48.234;14.320;2023-06-14T00:46:00;11.10;99.90
11320;DHT22;5715;48.234;14.320;2023-06-14T00:48:48;11.00;99.90
11320;DHT22;5715;48.234;14.320;2023-06-14T00:51:36;11.00;99.90
11320;DHT22;5715;48.234;14.320;2023-06-14T00:54:24;10.90;99.90
11320;DHT22;5715;48.234;14.320;2023-06-14T00:57:12;10.80;99.90
11320;DHT22;5715;48.234;14.320;2023-06-14T01:00:00;10.80;99.90
11320;DHT22;5715;48.234;14.320;2023-06-14T01:02:49;10.70;99.90
11320;DHT22;5715;48.234;14.320;2023-06-14T01:05:37;10.70;99.90
11320;DHT22;5715;48.234;14.320;2023-06-14T01:12:11;10.50;99.90
11320;DHT22;5715;48.234;14.320;2023-06-14T01:15:06;10.40;99.90
11320;DHT22;5715;48.234;14.320;2023-06-14T01:17:55;10.30;99.90
11320;DHT22;5715;48.234;14.320;2023-06-14T01:20:50;10.30;99.90
11320;DHT22;5715;48.234;14.320;2023-06-14T01:23:37;10.20;99.90
11320;DHT22;5715;48.234;14.320;2023-06-14T01:26:25;10.20;99.90
11320;DHT22;5715;48.234;14.320;2023-06-14T01:29:16;10.20;99.90
11320;DHT22;5715;48.234;14.320;2023-06-14T01:32:05;10.20;99.90
11320;DHT22;5715;48.234;14.320;2023-06-14T01:34:54;10.00;99.90
11320;DHT22;5715;48.234;14.320;2023-06-14T01:37:43;10.00;99.90
11320;DHT22;5715;48.234;14.320;2023-06-14T01:40:34;10.00;99.90
11320;DHT22;5715;48.234;14.320;2023-06-14T01:43:23;9.90;99.90
11320;DHT22;5715;48.234;14.320;2023-06-14T01:46:14;9.90;99.90
11320;DHT22;5715;48.234;14.320;2023-06-14T01:49:03;9.90;99.90
11320;DHT22;5715;48.234;14.320;2023-06-14T01:51:51;9.80;99.90
11320;DHT22;5715;48.234;14.320;2023-06-14T01:54:38;9.90;99.90
11320;DHT22;5715;48.234;14.320;2023-06-14T01:57:29;9.90;99.90
11320;DHT22;5715;48.234;14.320;2023-06-14T02:00:17;9.80;99.90
11320;DHT22;5715;48.234;14.320;2023-06-14T02:03:05;9.90;99.90
11320;DHT22;5715;48.234;14.320;2023-06-14T02:05:53;9.90;99.90
11320;DHT22;5715;48.234;14.320;2023-06-14T02:08:43;9.90;99.90
11320;DHT22;5715;48.234;14.320;2023-06-14T02:11:30;9.90;99.90
11320;DHT22;5715;48.234;14.320;2023-06-14T02:14:18;9.90;99.90
11320;DHT22;5715;48.234;14.320;2023-06-14T02:17:05;9.90;99.90
11320;DHT22;5715;48.234;14.320;2023-06-14T02:19:53;9.90;99.90
11320;DHT22;5715;48.234;14.320;2023-06-14T02:22:41;9.90;99.90
11320;DHT22;5715;48.234;14.320;2023-06-14T02:25:28;9.90;99.90
11320;DHT22;5715;48.234;14.320;2023-06-14T02:28:16;10.00;99.90
11320;DHT22;5715;48.234;14.320;2023-06-14T02:31:04;9.90;99.90
11320;DHT22;5715;48.234;14.320;2023-06-14T02:33:52;10.00;99.90
11320;DHT22;5715;48.234;14.320;2023-06-14T02:36:39;10.00;99.90
11320;DHT22;5715;48.234;14.320;2023-06-14T02:39:29;10.10;99.90
11320;DHT22;5715;48.234;14.320;2023-06-14T02:42:17;10.00;99.90
11320;DHT22;5715;48.234;14.320;2023-06-14T02:45:05;9.80;99.90
11320;DHT22;5715;48.234;14.320;2023-06-14T02:47:53;9.80;99.90
11320;DHT22;5715;48.234;14.320;2023-06-14T02:50:42;9.80;99.90
11320;DHT22;5715;48.234;14.320;2023-06-14T02:53:30;9.80;99.90
11320;DHT22;5715;48.234;14.320;2023-06-14T02:56:18;9.80;99.90
11320;DHT22;5715;48.234;14.320;2023-06-14T02:59:07;9.90;99.90
11320;DHT22;5715;48.234;14.320;2023-06-14T03:01:56;9.90;99.90
11320;DHT22;5715;48.234;14.320;2023-06-14T03:04:43;9.90;99.90
11320;DHT22;5715;48.234;14.320;2023-06-14T03:07:33;9.90;99.90
11320;DHT22;5715;48.234;14.320;2023-06-14T03:10:21;9.90;99.90
11320;DHT22;5715;48.234;14.320;2023-06-14T03:13:09;9.90;99.90
11320;DHT22;5715;48.234;14.320;2023-06-14T03:15:58;9.90;99.90
11320;DHT22;5715;48.234;14.320;2023-06-14T03:18:51;9.90;99.90
11320;DHT22;5715;48.234;14.320;2023-06-14T03:21:39;9.90;99.90
11320;DHT22;5715;48.234;14.320;2023-06-14T03:24:31;9.90;99.90
11320;DHT22;5715;48.234;14.320;2023-06-14T03:27:24;9.90;99.90
11320;DHT22;5715;48.234;14.320;2023-06-14T03:30:13;10.00;99.90
11320;DHT22;5715;48.234;14.320;2023-06-14T03:33:01;10.00;99.90
11320;DHT22;5715;48.234;14.320;2023-06-14T03:35:49;10.10;99.90
11320;DHT22;5715;48.234;14.320;2023-06-14T03:38:37;10.20;99.90
11320;DHT22;5715;48.234;14.320;2023-06-14T03:41:24;10.20;99.90
11320;DHT22;5715;48.234;14.320;2023-06-14T03:44:17;10.20;99.90
11320;DHT22;5715;48.234;14.320;2023-06-14T03:47:06;10.30;99.90
11320;DHT22;5715;48.234;14.320;2023-06-14T03:49:53;10.50;99.90
11320;DHT22;5715;48.234;14.320;2023-06-14T03:52:41;10.60;99.90
11320;DHT22;5715;48.234;14.320;2023-06-14T03:55:30;11.10;99.90
11320;DHT22;5715;48.234;14.320;2023-06-14T03:58:21;11.50;99.90
11320;DHT22;5715;48.234;14.320;2023-06-14T04:01:08;11.80;99.90
11320;DHT22;5715;48.234;14.320;2023-06-14T04:03:57;11.90;99.90
11320;DHT22;5715;48.234;14.320;2023-06-14T04:06:45;12.00;99.90
11320;DHT22;5715;48.234;14.320;2023-06-14T04:09:35;12.00;99.90
11320;DHT22;5715;48.234;14.320;2023-06-14T04:12:23;12.10;99.90
11320;DHT22;5715;48.234;14.320;2023-06-14T04:15:10;12.20;99.90
11320;DHT22;5715;48.234;14.320;2023-06-14T04:18:01;12.20;99.90
11320;DHT22;5715;48.234;14.320;2023-06-14T04:20:49;12.40;99.90
11320;DHT22;5715;48.234;14.320;2023-06-14T04:23:37;12.60;99.90
11320;DHT22;5715;48.234;14.320;2023-06-14T04:26:25;12.70;99.90
11320;DHT22;5715;48.234;14.320;2023-06-14T04:29:17;12.90;99.90
11320;DHT22;5715;48.234;14.320;2023-06-14T04:32:06;13.30;99.90
11320;DHT22;5715;48.234;14.320;2023-06-14T04:34:57;13.90;99.90
11320;DHT22;5715;48.234;14.320;2023-06-14T04:37:46;14.60;99.90
11320;DHT22;5715;48.234;14.320;2023-06-14T04:40:33;15.20;99.90
11320;DHT22;5715;48.234;14.320;2023-06-14T04:43:38;16.00;99.90
11320;DHT22;5715;48.234;14.320;2023-06-14T04:46:27;16.80;99.90
11320;DHT22;5715;48.234;14.320;2023-06-14T04:49:16;17.20;99.90
11320;DHT22;5715;48.234;14.320;2023-06-14T04:52:05;17.50;99.90
11320;DHT22;5715;48.234;14.320;2023-06-14T04:54:53;17.60;99.90
11320;DHT22;5715;48.234;14.320;2023-06-14T04:57:41;17.60;99.90
11320;DHT22;5715;48.234;14.320;2023-06-14T05:00:30;17.80;99.90
11320;DHT22;5715;48.234;14.320;2023-06-14T05:03:17;18.10;99.90
11320;DHT22;5715;48.234;14.320;2023-06-14T05:06:05;18.80;99.90
11320;DHT22;5715;48.234;14.320;2023-06-14T05:08:53;19.20;99.90
11320;DHT22;5715;48.234;14.320;2023-06-14T05:11:41;19.50;99.90
11320;DHT22;5715;48.234;14.320;2023-06-14T05:14:32;19.80;99.90
11320;DHT22;5715;48.234;14.320;2023-06-14T05:17:19;20.30;99.90
11320;DHT22;5715;48.234;14.320;2023-06-14T05:20:08;20.80;99.90
11320;DHT22;5715;48.234;14.320;2023-06-14T05:22:57;21.70;99.90
11320;DHT22;5715;48.234;14.320;2023-06-14T05:25:46;22.10;99.90
11320;DHT22;5715;48.234;14.320;2023-06-14T05:28:33;22.90;99.90
11320;DHT22;5715;48.234;14.320;2023-06-14T05:31:21;23.00;99.90
11320;DHT22;5715;48.234;14.320;2023-06-14T05:34:10;23.50;99.90
11320;DHT22;5715;48.234;14.320;2023-06-14T05:36:58;23.10;99.90
11320;DHT22;5715;48.234;14.320;2023-06-14T05:39:46;22.50;99.90
11320;DHT22;5715;48.234;14.320;2023-06-14T05:42:33;22.80;99.90
11320;DHT22;5715;48.234;14.320;2023-06-14T05:45:21;22.90;99.90
11320;DHT22;5715;48.234;14.320;2023-06-14T05:48:08;22.80;99.90
11320;DHT22;5715;48.234;14.320;2023-06-14T05:50:56;22.40;99.90
11320;DHT22;5715;48.234;14.320;2023-06-14T05:53:44;22.40;99.90
11320;DHT22;5715;48.234;14.320;2023-06-14T05:56:33;22.20;99.90
11320;DHT22;5715;48.234;14.320;2023-06-14T05:59:20;22.20;99.90
11320;DHT22;5715;48.234;14.320;2023-06-14T06:02:08;22.10;99.90
11320;DHT22;5715;48.234;14.320;2023-06-14T06:04:56;22.40;99.90
11320;DHT22;5715;48.234;14.320;2023-06-14T06:07:43;22.50;99.90
11320;DHT22;5715;48.234;14.320;2023-06-14T06:10:35;22.40;99.90
11320;DHT22;5715;48.234;14.320;2023-06-14T06:13:22;22.80;99.90
11320;DHT22;5715;48.234;14.320;2023-06-14T06:16:10;22.70;99.90
11320;DHT22;5715;48.234;14.320;2023-06-14T06:18:58;22.60;99.90
11320;DHT22;5715;48.234;14.320;2023-06-14T06:21:46;22.20;99.90
11320;DHT22;5715;48.234;14.320;2023-06-14T06:24:34;22.10;99.90
11320;DHT22;5715;48.234;14.320;2023-06-14T06:27:21;21.70;99.90
11320;DHT22;5715;48.234;14.320;2023-06-14T06:30:09;21.20;99.90
11320;DHT22;5715;48.234;14.320;2023-06-14T06:32:57;20.60;99.90
11320;DHT22;5715;48.234;14.320;2023-06-14T06:35:46;20.30;99.90
11320;DHT22;5715;48.234;14.320;2023-06-14T06:38:37;20.00;99.90
11320;DHT22;5715;48.234;14.320;2023-06-14T06:41:24;19.80;99.90
11320;DHT22;5715;48.234;14.320;2023-06-14T06:44:12;19.60;99.90
11320;DHT22;5715;48.234;14.320;2023-06-14T06:47:00;19.40;99.90
11320;DHT22;5715;48.234;14.320;2023-06-14T06:49:47;19.40;99.90
11320;DHT22;5715;48.234;14.320;2023-06-14T06:52:35;19.40;99.90
11320;DHT22;5715;48.234;14.320;2023-06-14T06:55:23;19.30;99.90
11320;DHT22;5715;48.234;14.320;2023-06-14T06:58:12;19.40;99.90
11320;DHT22;5715;48.234;14.320;2023-06-14T07:01:01;19.50;99.90
11320;DHT22;5715;48.234;14.320;2023-06-14T07:03:48;19.60;99.90
11320;DHT22;5715;48.234;14.320;2023-06-14T07:06:36;19.60;99.90
11320;DHT22;5715;48.234;14.320;2023-06-14T07:09:24;19.70;99.90
11320;DHT22;5715;48.234;14.320;2023-06-14T07:12:11;19.80;99.90
11320;DHT22;5715;48.234;14.320;2023-06-14T07:15:00;19.90;99.90
11320;DHT22;5715;48.234;14.320;2023-06-14T07:17:47;20.00;99.90
11320;DHT22;5715;48.234;14.320;2023-06-14T07:20:35;20.10;99.90
11320;DHT22;5715;48.234;14.320;2023-06-14T07:23:25;19.90;99.90
11320;DHT22;5715;48.234;14.320;2023-06-14T07:26:12;19.90;99.90
11320;DHT22;5715;48.234;14.320;2023-06-14T07:29:00;20.00;99.90
11320;DHT22;5715;48.234;14.320;2023-06-14T07:31:48;20.00;99.90
11320;DHT22;5715;48.234;14.320;2023-06-14T07:34:36;20.10;99.90
11320;DHT22;5715;48.234;14.320;2023-06-14T07:37:23;20.00;99.90
11320;DHT22;5715;48.234;14.320;2023-06-14T07:40:11;20.20;99.90
11320;DHT22;5715;48.234;14.320;2023-06-14T07:42:59;20.20;99.90
11320;DHT22;5715;48.234;14.320;2023-06-14T07:45:48;20.20;99.90
11320;DHT22;5715;48.234;14.320;2023-06-14T07:48:52;20.30;99.90
11320;DHT22;5715;48.234;14.320;2023-06-14T07:51:40;20.50;99.90
11320;DHT22;5715;48.234;14.320;2023-06-14T07:54:28;20.40;99.90
11320;DHT22;5715;48.234;14.320;2023-06-14T07:57:17;20.60;99.90
11320;DHT22;5715;48.234;14.320;2023-06-14T08:00:07;20.80;99.90
11320;DHT22;5715;48.234;14.320;2023-06-14T08:02:58;21.00;99.90
11320;DHT22;5715;48.234;14.320;2023-06-14T08:05:48;21.10;99.90
11320;DHT22;5715;48.234;14.320;2023-06-14T08:08:36;21.20;99.90
11320;DHT22;5715;48.234;14.320;2023-06-14T08:11:23;21.30;99.90
11320;DHT22;5715;48.234;14.320;2023-06-14T08:14:11;21.40;99.90
11320;DHT22;5715;48.234;14.320;2023-06-14T08:16:59;21.30;99.90
11320;DHT22;5715;48.234;14.320;2023-06-14T08:19:47;21.40;99.90
11320;DHT22;5715;48.234;14.320;2023-06-14T08:22:34;21.60;99.90
11320;DHT22;5715;48.234;14.320;2023-06-14T08:25:23;21.60;99.90
11320;DHT22;5715;48.234;14.320;2023-06-14T08:28:11;21.60;99.90
11320;DHT22;5715;48.234;14.320;2023-06-14T08:30:58;21.70;99.90
11320;DHT22;5715;48.234;14.320;2023-06-14T08:33:46;21.90;99.90
11320;DHT22;5715;48.234;14.320;2023-06-14T08:36:35;21.90;99.90
11320;DHT22;5715;48.234;14.320;2023-06-14T08:39:23;21.80;99.90
11320;DHT22;5715;48.234;14.320;2023-06-14T08:42:11;21.80;99.90
11320;DHT22;5715;48.234;14.320;2023-06-14T08:45:18;21.80;99.90
11320;DHT22;5715;48.234;14.320;2023-06-14T08:48:10;22.00;99.90
11320;DHT22;5715;48.234;14.320;2023-06-14T08:51:02;22.30;99.90
11320;DHT22;5715;48.234;14.320;2023-06-14T08:53:55;22.40;99.90
11320;DHT22;5715;48.234;14.320;2023-06-14T08:56:48;22.60;99.90
11320;DHT22;5715;48.234;14.320;2023-06-14T08:59:46;22.80;99.90
11320;DHT22;5715;48.234;14.320;2023-06-14T09:02:40;22.90;99.90
11320;DHT22;5715;48.234;14.320;2023-06-14T09:05:33;22.70;99.90
11320;DHT22;5715;48.234;14.320;2023-06-14T09:08:21;22.80;99.90
11320;DHT22;5715;48.234;14.320;2023-06-14T09:11:13;22.40;99.90
11320;DHT22;5715;48.234;14.320;2023-06-14T09:14:01;22.40;99.90
11320;DHT22;5715;48.234;14.320;2023-06-14T09:16:54;22.50;99.90
11320;DHT22;5715;48.234;14.320;2023-06-14T09:19:41;22.80;99.90
11320;DHT22;5715;48.234;14.320;2023-06-14T09:22:29;23.00;99.90
11320;DHT22;5715;48.234;14.320;2023-06-14T09:25:17;23.30;99.90
11320;DHT22;5715;48.234;14.320;2023-06-14T09:28:28;23.20;99.90
11320;DHT22;5715;48.234;14.320;2023-06-14T09:31:18;23.30;99.90
11320;DHT22;5715;48.234;14.320;2023-06-14T09:34:07;23.20;99.90
11320;DHT22;5715;48.234;14.320;2023-06-14T09:36:56;22.90;99.90
11320;DHT22;5715;48.234;14.320;2023-06-14T09:39:53;22.50;99.90
11320;DHT22;5715;48.234;14.320;2023-06-14T09:42:40;22.90;99.90
11320;DHT22;5715;48.234;14.320;2023-06-14T09:45:29;23.10;99.90
11320;DHT22;5715;48.234;14.320;2023-06-14T09:48:18;23.20;99.90
11320;DHT22;5715;48.234;14.320;2023-06-14T09:51:06;23.50;99.90
11320;DHT22;5715;48.234;14.320;2023-06-14T09:53:59;23.60;99.90
11320;DHT22;5715;48.234;14.320;2023-06-14T09:56:48;23.60;99.90
11320;DHT22;5715;48.234;14.320;2023-06-14T09:59:44;23.70;99.90
11320;DHT22;5715;48.234;14.320;2023-06-14T10:02:36;23.70;99.90
11320;DHT22;5715;48.234;14.320;2023-06-14T10:05:29;23.70;99.90
11320;DHT22;5715;48.234;14.320;2023-06-14T10:08:19;23.90;99.90
11320;DHT22;5715;48.234;14.320;2023-06-14T10:11:16;23.90;99.90
11320;DHT22;5715;48.234;14.320;2023-06-14T10:14:05;24.00;99.90
11320;DHT22;5715;48.234;14.320;2023-06-14T10:17:00;24.00;99.90
11320;DHT22;5715;48.234;14.320;2023-06-14T10:19:58;24.10;99.90
11320;DHT22;5715;48.234;14.320;2023-06-14T10:23:21;24.10;99.90
11320;DHT22;5715;48.234;14.320;2023-06-14T10:26:21;24.30;99.90
11320;DHT22;5715;48.234;14.320;2023-06-14T10:29:10;24.30;99.90
11320;DHT22;5715;48.234;14.320;2023-06-14T10:32:00;24.20;99.90
11320;DHT22;5715;48.234;14.320;2023-06-14T10:34:56;24.40;99.90
11320;DHT22;5715;48.234;14.320;2023-06-14T10:37:47;24.40;99.90
11320;DHT22;5715;48.234;14.320;2023-06-14T10:40:36;24.40;99.90
11320;DHT22;5715;48.234;14.320;2023-06-14T10:43:24;24.60;99.90
11320;DHT22;5715;48.234;14.320;2023-06-14T10:46:17;24.80;99.90
11320;DHT22;5715;48.234;14.320;2023-06-14T10:49:09;25.00;99.90
11320;DHT22;5715;48.234;14.320;2023-06-14T10:51:57;24.90;99.90
11320;DHT22;5715;48.234;14.320;2023-06-14T10:58:06;25.00;99.90
11320;DHT22;5715;48.234;14.320;2023-06-14T11:00:53;24.50;99.90
11320;DHT22;5715;48.234;14.320;2023-06-14T11:06:54;24.20;99.90
11320;DHT22;5715;48.234;14.320;2023-06-14T11:10:20;24.50;99.90
11320;DHT22;5715;48.234;14.320;2023-06-14T11:13:19;24.60;99.90
11320;DHT22;5715;48.234;14.320;2023-06-14T11:16:17;24.70;99.90
11320;DHT22;5715;48.234;14.320;2023-06-14T11:19:08;24.80;99.90
11320;DHT22;5715;48.234;14.320;2023-06-14T11:21:57;25.00;99.90
11320;DHT22;5715;48.234;14.320;2023-06-14T11:24:46;25.10;99.90
11320;DHT22;5715;48.234;14.320;2023-06-14T11:27:33;25.10;99.90
11320;DHT22;5715;48.234;14.320;2023-06-14T11:30:22;25.30;99.90
11320;DHT22;5715;48.234;14.320;2023-06-14T11:33:17;25.50;99.90
11320;DHT22;5715;48.234;14.320;2023-06-14T11:36:08;25.70;99.90
11320;DHT22;5715;48.234;14.320;2023-06-14T11:39:06;25.60;99.90
11320;DHT22;5715;48.234;14.320;2023-06-14T11:41:54;25.50;99.90
11320;DHT22;5715;48.234;14.320;2023-06-14T11:44:45;25.40;99.50
11320;DHT22;5715;48.234;14.320;2023-06-14T11:47:35;25.20;99.90
11320;DHT22;5715;48.234;14.320;2023-06-14T11:50:24;25.00;99.70
11320;DHT22;5715;48.234;14.320;2023-06-14T11:53:12;24.40;99.90
11320;DHT22;5715;48.234;14.320;2023-06-14T11:56:00;24.30;99.90
11320;DHT22;5715;48.234;14.320;2023-06-14T11:58:48;24.10;99.90
11320;DHT22;5715;48.234;14.320;2023-06-14T12:01:37;24.00;99.90
11320;DHT22;5715;48.234;14.320;2023-06-14T12:04:29;23.90;99.90
11320;DHT22;5715;48.234;14.320;2023-06-14T12:07:18;24.00;99.90
11320;DHT22;5715;48.234;14.320;2023-06-14T12:10:08;23.90;99.90
11320;DHT22;5715;48.234;14.320;2023-06-14T12:12:57;23.70;99.90
11320;DHT22;5715;48.234;14.320;2023-06-14T12:15:54;23.80;99.90
11320;DHT22;5715;48.234;14.320;2023-06-14T12:18:43;23.80;99.90
11320;DHT22;5715;48.234;14.320;2023-06-14T12:21:32;23.80;99.60
11320;DHT22;5715;48.234;14.320;2023-06-14T12:24:20;23.90;99.50
11320;DHT22;5715;48.234;14.320;2023-06-14T12:27:08;23.80;99.90
11320;DHT22;5715;48.234;14.320;2023-06-14T12:30:03;23.90;99.90
11320;DHT22;5715;48.234;14.320;2023-06-14T12:32:52;24.10;99.70
11320;DHT22;5715;48.234;14.320;2023-06-14T12:35:39;23.80;99.90
11320;DHT22;5715;48.234;14.320;2023-06-14T12:38:27;23.80;99.90
11320;DHT22;5715;48.234;14.320;2023-06-14T12:41:15;23.50;99.90
11320;DHT22;5715;48.234;14.320;2023-06-14T12:44:03;22.90;99.90
11320;DHT22;5715;48.234;14.320;2023-06-14T12:46:53;22.20;99.90
11320;DHT22;5715;48.234;14.320;2023-06-14T12:49:42;21.80;99.90
11320;DHT22;5715;48.234;14.320;2023-06-14T12:52:29;21.20;99.90
11320;DHT22;5715;48.234;14.320;2023-06-14T12:55:17;20.80;99.90
11320;DHT22;5715;48.234;14.320;2023-06-14T12:58:07;20.70;99.90
11320;DHT22;5715;48.234;14.320;2023-06-14T13:00:54;20.60;99.90
11320;DHT22;5715;48.234;14.320;2023-06-14T13:03:42;20.60;99.90
11320;DHT22;5715;48.234;14.320;2023-06-14T13:06:30;20.50;99.90
11320;DHT22;5715;48.234;14.320;2023-06-14T13:09:18;20.50;99.90
11320;DHT22;5715;48.234;14.320;2023-06-14T13:12:06;20.40;99.90
11320;DHT22;5715;48.234;14.320;2023-06-14T13:14:55;20.60;99.90
11320;DHT22;5715;48.234;14.320;2023-06-14T13:17:42;20.70;99.90
11320;DHT22;5715;48.234;14.320;2023-06-14T13:20:35;20.80;99.90
11320;DHT22;5715;48.234;14.320;2023-06-14T13:23:23;21.00;99.90
11320;DHT22;5715;48.234;14.320;2023-06-14T13:26:10;21.40;99.90
11320;DHT22;5715;48.234;14.320;2023-06-14T13:28:59;21.60;99.90
11320;DHT22;5715;48.234;14.320;2023-06-14T13:31:47;21.80;99.90
11320;DHT22;5715;48.234;14.320;2023-06-14T13:34:34;22.00;99.90
11320;DHT22;5715;48.234;14.320;2023-06-14T13:37:22;22.20;99.90
11320;DHT22;5715;48.234;14.320;2023-06-14T13:40:10;22.40;99.90
11320;DHT22;5715;48.234;14.320;2023-06-14T13:42:58;22.50;99.90
11320;DHT22;5715;48.234;14.320;2023-06-14T13:45:46;22.60;99.90
11320;DHT22;5715;48.234;14.320;2023-06-14T13:48:33;22.60;99.90
11320;DHT22;5715;48.234;14.320;2023-06-14T13:51:21;22.60;99.90
11320;DHT22;5715;48.234;14.320;2023-06-14T13:54:09;22.80;99.90
11320;DHT22;5715;48.234;14.320;2023-06-14T13:56:59;22.80;99.90
11320;DHT22;5715;48.234;14.320;2023-06-14T13:59:46;23.20;99.90
11320;DHT22;5715;48.234;14.320;2023-06-14T14:02:35;23.90;99.90
11320;DHT22;5715;48.234;14.320;2023-06-14T14:05:23;24.50;99.90
11320;DHT22;5715;48.234;14.320;2023-06-14T14:08:15;25.00;98.60
11320;DHT22;5715;48.234;14.320;2023-06-14T14:11:03;25.50;99.00
11320;DHT22;5715;48.234;14.320;2023-06-14T14:13:50;25.80;98.80
11320;DHT22;5715;48.234;14.320;2023-06-14T14:16:38;25.90;97.90
11320;DHT22;5715;48.234;14.320;2023-06-14T14:19:26;25.80;98.00
11320;DHT22;5715;48.234;14.320;2023-06-14T14:22:13;26.00;97.70
11320;DHT22;5715;48.234;14.320;2023-06-14T14:25:01;26.10;98.10
11320;DHT22;5715;48.234;14.320;2023-06-14T14:27:48;26.20;98.30
11320;DHT22;5715;48.234;14.320;2023-06-14T14:30:36;26.30;97.10
11320;DHT22;5715;48.234;14.320;2023-06-14T14:33:26;26.30;98.00
11320;DHT22;5715;48.234;14.320;2023-06-14T14:36:14;26.20;96.80
11320;DHT22;5715;48.234;14.320;2023-06-14T14:39:02;26.20;97.00
11320;DHT22;5715;48.234;14.320;2023-06-14T14:41:50;26.20;96.90
11320;DHT22;5715;48.234;14.320;2023-06-14T14:44:38;26.00;97.80
11320;DHT22;5715;48.234;14.320;2023-06-14T14:47:26;26.00;97.50
11320;DHT22;5715;48.234;14.320;2023-06-14T14:50:14;26.00;96.80
11320;DHT22;5715;48.234;14.320;2023-06-14T14:53:02;25.80;96.80
11320;DHT22;5715;48.234;14.320;2023-06-14T14:55:50;25.90;96.70
11320;DHT22;5715;48.234;14.320;2023-06-14T14:58:38;25.60;96.50
11320;DHT22;5715;48.234;14.320;2023-06-14T15:01:25;25.60;95.90
11320;DHT22;5715;48.234;14.320;2023-06-14T15:04:13;25.70;96.50
11320;DHT22;5715;48.234;14.320;2023-06-14T15:07:00;25.60;98.20
11320;DHT22;5715;48.234;14.320;2023-06-14T15:09:48;25.50;97.90
11320;DHT22;5715;48.234;14.320;2023-06-14T15:12:38;25.30;97.20
11320;DHT22;5715;48.234;14.320;2023-06-14T15:15:25;25.60;96.80
11320;DHT22;5715;48.234;14.320;2023-06-14T15:18:13;25.70;96.20
11320;DHT22;5715;48.234;14.320;2023-06-14T15:21:02;25.90;96.70
11320;DHT22;5715;48.234;14.320;2023-06-14T15:23:50;25.80;98.00
11320;DHT22;5715;48.234;14.320;2023-06-14T15:26:38;25.40;98.20
11320;DHT22;5715;48.234;14.320;2023-06-14T15:29:25;25.30;98.30
11320;DHT22;5715;48.234;14.320;2023-06-14T15:32:13;25.30;98.70
11320;DHT22;5715;48.234;14.320;2023-06-14T15:35:00;25.40;97.70
11320;DHT22;5715;48.234;14.320;2023-06-14T15:37:48;25.40;97.50
11320;DHT22;5715;48.234;14.320;2023-06-14T15:40:36;24.90;97.60
11320;DHT22;5715;48.234;14.320;2023-06-14T15:43:23;24.70;98.70
11320;DHT22;5715;48.234;14.320;2023-06-14T15:46:11;24.80;98.20
11320;DHT22;5715;48.234;14.320;2023-06-14T15:48:59;24.80;99.20
11320;DHT22;5715;48.234;14.320;2023-06-14T15:51:46;24.60;98.90
11320;DHT22;5715;48.234;14.320;2023-06-14T15:54:34;24.40;98.90
11320;DHT22;5715;48.234;14.320;2023-06-14T15:57:22;24.10;99.00
11320;DHT22;5715;48.234;14.320;2023-06-14T16:00:10;24.30;98.00
11320;DHT22;5715;48.234;14.320;2023-06-14T16:02:58;24.50;98.90
11320;DHT22;5715;48.234;14.320;2023-06-14T16:05:46;24.80;98.60
11320;DHT22;5715;48.234;14.320;2023-06-14T16:08:35;25.10;97.70
11320;DHT22;5715;48.234;14.320;2023-06-14T16:11:27;25.10;97.40
11320;DHT22;5715;48.234;14.320;2023-06-14T16:14:15;25.20;97.60
11320;DHT22;5715;48.234;14.320;2023-06-14T16:17:03;25.30;97.00
11320;DHT22;5715;48.234;14.320;2023-06-14T16:19:51;25.30;97.50
11320;DHT22;5715;48.234;14.320;2023-06-14T16:22:39;25.00;97.00
11320;DHT22;5715;48.234;14.320;2023-06-14T16:25:26;25.00;97.40
11320;DHT22;5715;48.234;14.320;2023-06-14T16:28:14;25.00;97.00
11320;DHT22;5715;48.234;14.320;2023-06-14T16:31:02;25.20;97.80
11320;DHT22;5715;48.234;14.320;2023-06-14T16:33:49;25.20;97.90
11320;DHT22;5715;48.234;14.320;2023-06-14T16:36:44;25.20;97.80
11320;DHT22;5715;48.234;14.320;2023-06-14T16:39:32;25.20;97.90
11320;DHT22;5715;48.234;14.320;2023-06-14T16:42:20;25.20;97.50
11320;DHT22;5715;48.234;14.320;2023-06-14T16:45:08;25.50;96.80
11320;DHT22;5715;48.234;14.320;2023-06-14T16:47:55;25.80;97.40
11320;DHT22;5715;48.234;14.320;2023-06-14T16:50:43;26.00;96.80
11320;DHT22;5715;48.234;14.320;2023-06-14T16:53:31;26.00;96.70
11320;DHT22;5715;48.234;14.320;2023-06-14T16:56:22;25.60;97.20
11320;DHT22;5715;48.234;14.320;2023-06-14T16:59:14;25.00;97.10
11320;DHT22;5715;48.234;14.320;2023-06-14T17:02:02;24.60;97.50
11320;DHT22;5715;48.234;14.320;2023-06-14T17:04:52;24.20;97.90
11320;DHT22;5715;48.234;14.320;2023-06-14T17:07:41;24.00;98.20
11320;DHT22;5715;48.234;14.320;2023-06-14T17:10:28;23.60;98.40
11320;DHT22;5715;48.234;14.320;2023-06-14T17:13:16;23.30;98.50
11320;DHT22;5715;48.234;14.320;2023-06-14T17:16:05;23.10;98.80
11320;DHT22;5715;48.234;14.320;2023-06-14T17:18:53;22.90;98.90
11320;DHT22;5715;48.234;14.320;2023-06-14T17:21:41;22.70;99.10
11320;DHT22;5715;48.234;14.320;2023-06-14T17:24:33;22.60;99.40
11320;DHT22;5715;48.234;14.320;2023-06-14T17:27:21;22.40;99.40
11320;DHT22;5715;48.234;14.320;2023-06-14T17:30:10;22.20;99.60
11320;DHT22;5715;48.234;14.320;2023-06-14T17:32:58;22.10;99.80
11320;DHT22;5715;48.234;14.320;2023-06-14T17:35:46;22.00;99.90
11320;DHT22;5715;48.234;14.320;2023-06-14T17:38:34;22.00;99.90
11320;DHT22;5715;48.234;14.320;2023-06-14T17:41:23;21.90;99.90
11320;DHT22;5715;48.234;14.320;2023-06-14T17:44:12;22.00;99.90
11320;DHT22;5715;48.234;14.320;2023-06-14T17:46:59;22.10;99.90
11320;DHT22;5715;48.234;14.320;2023-06-14T17:49:47;22.30;99.90
11320;DHT22;5715;48.234;14.320;2023-06-14T17:52:38;22.50;99.90
11320;DHT22;5715;48.234;14.320;2023-06-14T17:55:26;22.30;99.90
11320;DHT22;5715;48.234;14.320;2023-06-14T17:58:13;22.20;99.90
11320;DHT22;5715;48.234;14.320;2023-06-14T18:01:01;22.00;99.90